createdAt,value
2017-02-24T00:00:01.128Z,48.86
2017-02-24T00:01:01.134Z,49.15
2017-02-24T00:02:00.767Z,48.93
2017-02-24T00:03:00.807Z,48.57
2017-02-24T00:04:00.834Z,49.05
2017-02-24T00:05:01.245Z,48.47
2017-02-24T00:06:00.870Z,48.47
2017-02-24T00:07:01.303Z,48.95
2017-02-24T00:08:00.923Z,49.12
2017-02-24T00:09:01.352Z,48.74
2017-02-24T00:10:00.984Z,48.64
2017-02-24T00:11:01.413Z,48.16
2017-02-24T00:12:01.447Z,48.44
2017-02-24T00:13:01.467Z,48.47
2017-02-24T00:14:01.096Z,48.74
2017-02-24T00:15:01.517Z,48.44
2017-02-24T00:16:01.145Z,48.06
2017-02-24T00:17:01.178Z,48.16
2017-02-24T00:18:01.205Z,48.25
2017-02-24T00:19:01.636Z,48.44
2017-02-24T00:20:01.653Z,48.54
2017-02-24T00:21:01.678Z,48.25
2017-02-24T00:22:01.706Z,48.25
2017-02-24T00:23:01.330Z,48.64
2017-02-24T00:24:01.363Z,48.74
2017-02-24T00:25:01.400Z,49.02
2017-02-24T00:26:02.069Z,48.83
2017-02-24T00:27:01.842Z,48.54
2017-02-24T00:28:01.472Z,48.44
2017-02-24T00:29:01.904Z,48.44
2017-02-24T00:30:01.528Z,47.97
2017-02-24T00:31:01.805Z,47.97
2017-02-24T00:32:01.985Z,48.93
2017-02-24T00:33:02.008Z,49.02
2017-02-24T00:34:02.030Z,47.97
2017-02-24T00:35:02.067Z,48.44
2017-02-24T00:36:01.953Z,48.25
2017-02-24T00:37:02.115Z,48.44
2017-02-24T00:38:01.746Z,48.54
2017-02-24T00:39:02.179Z,48.35
2017-02-24T00:40:02.196Z,48.54
2017-02-24T00:41:02.472Z,48.54
2017-02-24T00:42:02.253Z,48.16
2017-02-24T00:43:02.286Z,48.44
2017-02-24T00:44:02.402Z,48.44
2017-02-24T00:45:01.931Z,47.77
2017-02-24T00:46:02.212Z,47.58
2017-02-24T00:47:02.384Z,47.97
2017-02-24T00:48:02.409Z,48.54
2017-02-24T00:49:02.438Z,48.06
2017-02-24T00:50:02.469Z,48.06
2017-02-24T00:51:02.740Z,48.44
2017-02-24T00:52:02.120Z,47.94
2017-02-24T00:53:02.549Z,47.87
2017-02-24T00:54:02.174Z,47.29
2017-02-24T00:55:02.202Z,47.87
2017-02-24T00:56:02.883Z,48.25
2017-02-24T00:57:02.267Z,48.25
2017-02-24T00:58:02.285Z,47.94
2017-02-24T00:59:02.714Z,48.33
2017-02-24T01:00:02.731Z,47.87
2017-02-24T01:01:03.006Z,48.16
2017-02-24T01:02:02.804Z,48.06
2017-02-24T01:03:02.813Z,47.97
2017-02-24T01:04:02.838Z,47.67
2017-02-24T01:05:02.873Z,48.13
2017-02-24T01:06:02.751Z,47.29
2017-02-24T01:07:02.939Z,47.17
2017-02-24T01:08:02.556Z,47.29
2017-02-24T01:09:02.577Z,48.16
2017-02-24T01:10:02.998Z,47.85
2017-02-24T01:11:03.290Z,47.94
2017-02-24T01:12:03.068Z,48.13
2017-02-24T01:13:02.688Z,48.03
2017-02-24T01:14:03.108Z,47.75
2017-02-24T01:15:03.137Z,47.94
2017-02-24T01:16:03.421Z,47.36
2017-02-24T01:17:02.799Z,47.46
2017-02-24T01:18:02.832Z,47.56
2017-02-24T01:19:03.245Z,47.17
2017-02-24T01:20:03.281Z,47.46
2017-02-24T01:21:02.918Z,47.94
2017-02-24T01:22:03.337Z,48.33
2017-02-24T01:23:03.351Z,47.56
2017-02-24T01:24:03.381Z,47.46
2017-02-24T01:25:03.403Z,47.65
2017-02-24T01:26:03.443Z,47.56
2017-02-24T01:27:03.058Z,47.08
2017-02-24T01:28:03.095Z,47.56
2017-02-24T01:29:03.127Z,47.56
2017-02-24T01:30:03.548Z,47.46
2017-02-24T01:31:03.566Z,47.46
2017-02-24T01:32:03.594Z,46.88
2017-02-24T01:33:03.619Z,47.46
2017-02-24T01:34:03.648Z,47.75
2017-02-24T01:35:03.671Z,47.27
2017-02-24T01:36:03.699Z,47.36
2017-02-24T01:37:03.346Z,47.46
2017-02-24T01:38:03.359Z,47.27
2017-02-24T01:39:03.784Z,47.27
2017-02-24T01:40:03.828Z,47.08
2017-02-24T01:41:03.833Z,46.98
2017-02-24T01:42:03.861Z,46.69
2017-02-24T01:43:03.495Z,47.36
2017-02-24T01:44:03.519Z,47.46
2017-02-24T01:45:03.947Z,47.65
2017-02-24T01:46:03.573Z,47.46
2017-02-24T01:47:03.997Z,47.17
2017-02-24T01:48:04.030Z,47.65
2017-02-24T01:49:03.654Z,47.08
2017-02-24T01:50:03.686Z,46.98
2017-02-24T01:51:03.711Z,46.98
2017-02-24T01:52:04.137Z,46.98
2017-02-24T01:53:04.160Z,46.98
2017-02-24T01:54:04.186Z,47.27
2017-02-24T01:55:03.833Z,47.08
2017-02-24T01:56:03.840Z,47.08
2017-02-24T01:57:03.873Z,47.27
2017-02-24T01:58:04.290Z,47.46
2017-02-24T01:59:04.329Z,47.27
2017-02-24T02:00:03.947Z,46.98
2017-02-24T02:01:03.971Z,46.78
2017-02-24T02:02:04.004Z,47.08
2017-02-24T02:03:04.429Z,47.27
2017-02-24T02:04:04.454Z,47.27
2017-02-24T02:05:04.078Z,47.08
2017-02-24T02:06:04.107Z,46.88
2017-02-24T02:07:04.533Z,47.46
2017-02-24T02:08:04.163Z,46.5
2017-02-24T02:09:04.194Z,47.36
2017-02-24T02:10:04.611Z,46.98
2017-02-24T02:11:04.651Z,47.27
2017-02-24T02:12:04.664Z,46.78
2017-02-24T02:13:04.694Z,46.98
2017-02-24T02:14:04.721Z,47.46
2017-02-24T02:15:04.350Z,47.36
2017-02-24T02:16:04.762Z,47.36
2017-02-24T02:17:04.799Z,47.65
2017-02-24T02:18:04.825Z,47.27
2017-02-24T02:19:04.853Z,47.17
2017-02-24T02:20:04.878Z,47.56
2017-02-24T02:21:04.910Z,47.17
2017-02-24T02:22:04.936Z,47.65
2017-02-24T02:23:04.564Z,47.27
2017-02-24T02:24:04.985Z,47.27
2017-02-24T02:25:05.026Z,47.56
2017-02-24T02:26:05.051Z,47.17
2017-02-24T02:27:04.675Z,47.17
2017-02-24T02:28:04.693Z,47.27
2017-02-24T02:29:04.737Z,47.36
2017-02-24T02:30:04.752Z,46.4
2017-02-24T02:31:05.174Z,46.98
2017-02-24T02:32:04.815Z,47.08
2017-02-24T02:33:04.852Z,47.08
2017-02-24T02:34:04.869Z,47.36
2017-02-24T02:35:05.281Z,47.17
2017-02-24T02:36:04.914Z,46.88
2017-02-24T02:37:05.337Z,47.17
2017-02-24T02:38:05.358Z,47.56
2017-02-24T02:39:04.996Z,46.98
2017-02-24T02:40:05.016Z,47.56
2017-02-24T02:41:05.449Z,47.46
2017-02-24T02:42:05.718Z,47.46
2017-02-24T02:43:05.518Z,47.63
2017-02-24T02:44:05.535Z,46.98
2017-02-24T02:45:05.553Z,47.65
2017-02-24T02:46:05.176Z,47.46
2017-02-24T02:47:05.853Z,47.36
2017-02-24T02:48:05.235Z,47.27
2017-02-24T02:49:05.666Z,47.08
2017-02-24T02:50:05.679Z,47.36
2017-02-24T02:51:05.705Z,47.15
2017-02-24T02:52:05.985Z,47.24
2017-02-24T02:53:05.756Z,47.27
2017-02-24T02:54:05.787Z,47.17
2017-02-24T02:55:05.812Z,47.46
2017-02-24T02:56:05.441Z,47.17
2017-02-24T02:57:05.720Z,47.17
2017-02-24T02:58:05.900Z,46.95
2017-02-24T02:59:05.517Z,46.98
2017-02-24T03:00:05.547Z,46.78
2017-02-24T03:01:05.973Z,46.47
2017-02-24T03:02:06.249Z,46.95
2017-02-24T03:03:06.026Z,47.46
2017-02-24T03:04:06.051Z,47.15
2017-02-24T03:05:06.083Z,46.88
2017-02-24T03:06:05.711Z,47.15
2017-02-24T03:07:06.381Z,47.17
2017-02-24T03:08:05.770Z,47.63
2017-02-24T03:09:06.182Z,47.24
2017-02-24T03:10:05.818Z,46.95
2017-02-24T03:11:06.236Z,47.24
2017-02-24T03:12:06.516Z,47.15
2017-02-24T03:13:06.300Z,47.24
2017-02-24T03:14:06.650Z,47.53
2017-02-24T03:15:06.355Z,47.44
2017-02-24T03:16:06.368Z,46.95
2017-02-24T03:17:06.402Z,46.38
2017-02-24T03:18:06.421Z,46.95
2017-02-24T03:19:06.058Z,46.28
2017-02-24T03:20:06.074Z,46.67
2017-02-24T03:21:06.107Z,46.5
2017-02-24T03:22:06.139Z,46.95
2017-02-24T03:23:06.177Z,47.15
2017-02-24T03:24:06.577Z,46.86
2017-02-24T03:25:06.210Z,46.57
2017-02-24T03:26:06.255Z,46.86
2017-02-24T03:27:06.664Z,46.77
2017-02-24T03:28:06.696Z,47.05
2017-02-24T03:29:06.316Z,46.95
2017-02-24T03:30:06.746Z,47.05
2017-02-24T03:31:06.766Z,47.05
2017-02-24T03:32:06.799Z,46.86
2017-02-24T03:33:06.825Z,47.15
2017-02-24T03:34:06.844Z,46.95
2017-02-24T03:35:06.874Z,46.95
2017-02-24T03:36:06.901Z,47.05
2017-02-24T03:37:06.526Z,46.77
2017-02-24T03:38:06.558Z,46.77
2017-02-24T03:39:06.983Z,47.15
2017-02-24T03:40:06.604Z,47.24
2017-02-24T03:41:06.628Z,46.95
2017-02-24T03:42:07.089Z,47.44
2017-02-24T03:43:07.086Z,47.44
2017-02-24T03:44:07.114Z,46.67
2017-02-24T03:45:06.764Z,46.95
2017-02-24T03:46:06.770Z,46.86
2017-02-24T03:47:07.182Z,47.24
2017-02-24T03:48:07.217Z,47.05
2017-02-24T03:49:06.859Z,46.86
2017-02-24T03:50:06.873Z,47.24
2017-02-24T03:51:06.900Z,46.86
2017-02-24T03:52:07.319Z,46.95
2017-02-24T03:53:07.352Z,47.05
2017-02-24T03:54:07.377Z,46.67
2017-02-24T03:55:07.005Z,47.05
2017-02-24T03:56:07.425Z,47.05
2017-02-24T03:57:07.055Z,47.34
2017-02-24T03:58:07.731Z,47.44
2017-02-24T03:59:07.128Z,46.95
2017-02-24T04:00:07.141Z,47.34
2017-02-24T04:01:07.560Z,47.05
2017-02-24T04:02:07.586Z,47.44
2017-02-24T04:03:07.483Z,47.24
2017-02-24T04:04:07.642Z,46.95
2017-02-24T04:05:07.276Z,47.44
2017-02-24T04:06:07.695Z,47.34
2017-02-24T04:07:07.715Z,46.95
2017-02-24T04:08:08.005Z,47.34
2017-02-24T04:09:07.782Z,47.15
2017-02-24T04:10:07.797Z,46.95
2017-02-24T04:11:07.823Z,47.05
2017-02-24T04:12:07.459Z,47.05
2017-02-24T04:13:08.129Z,47.05
2017-02-24T04:14:07.517Z,47.15
2017-02-24T04:15:07.930Z,46.95
2017-02-24T04:16:07.559Z,47.05
2017-02-24T04:17:07.983Z,46.95
2017-02-24T04:18:07.864Z,47.05
2017-02-24T04:19:08.040Z,46.95
2017-02-24T04:20:08.065Z,46.95
2017-02-24T04:21:08.084Z,46.38
2017-02-24T04:22:07.713Z,46.28
2017-02-24T04:23:07.995Z,46.38
2017-02-24T04:24:07.775Z,46.47
2017-02-24T04:25:07.820Z,46.38
2017-02-24T04:26:08.220Z,46.47
2017-02-24T04:27:08.242Z,46.28
2017-02-24T04:28:08.122Z,46.86
2017-02-24T04:29:08.299Z,46.47
2017-02-24T04:30:08.322Z,46.57
2017-02-24T04:31:08.361Z,46.38
2017-02-24T04:32:07.978Z,46.47
2017-02-24T04:33:08.659Z,47.15
2017-02-24T04:34:08.039Z,46.95
2017-02-24T04:35:08.059Z,46.86
2017-02-24T04:36:08.485Z,46.47
2017-02-24T04:37:08.522Z,46.57
2017-02-24T04:38:08.791Z,46.86
2017-02-24T04:39:08.566Z,46.77
2017-02-24T04:40:08.589Z,47.15
2017-02-24T04:41:08.625Z,47.24
2017-02-24T04:42:08.654Z,46.77
2017-02-24T04:43:08.526Z,47.15
2017-02-24T04:44:08.695Z,46.86
2017-02-24T04:45:08.720Z,47.24
2017-02-24T04:46:08.749Z,47.15
2017-02-24T04:47:08.777Z,46.86
2017-02-24T04:48:09.050Z,46.95
2017-02-24T04:49:08.831Z,47.05
2017-02-24T04:50:08.464Z,47.24
2017-02-24T04:51:08.485Z,47.34
2017-02-24T04:52:08.510Z,47.15
2017-02-24T04:53:09.186Z,47.15
2017-02-24T04:54:08.979Z,47.24
2017-02-24T04:55:08.600Z,46.95
2017-02-24T04:56:08.616Z,47.05
2017-02-24T04:57:08.645Z,47.05
2017-02-24T04:58:08.919Z,47.44
2017-02-24T04:59:08.707Z,47.44
2017-02-24T05:00:09.119Z,47.24
2017-02-24T05:01:09.140Z,47.34
2017-02-24T05:02:09.172Z,46.95
2017-02-24T05:03:09.053Z,47.24
2017-02-24T05:04:09.218Z,47.24
2017-02-24T05:05:08.864Z,47.05
2017-02-24T05:06:09.272Z,47.15
2017-02-24T05:07:08.909Z,47.15
2017-02-24T05:08:09.584Z,47.24
2017-02-24T05:09:09.370Z,47.44
2017-02-24T05:10:08.995Z,47.34
2017-02-24T05:11:09.408Z,47.15
2017-02-24T05:12:09.433Z,47.05
2017-02-24T05:13:09.725Z,46.95
2017-02-24T05:14:09.090Z,46.86
2017-02-24T05:15:09.523Z,46.95
2017-02-24T05:16:09.536Z,47.15
2017-02-24T05:17:09.570Z,47.05
2017-02-24T05:18:09.841Z,47.15
2017-02-24T05:19:09.618Z,47.15
2017-02-24T05:20:09.251Z,46.95
2017-02-24T05:21:09.683Z,46.95
2017-02-24T05:22:09.304Z,46.77
2017-02-24T05:23:09.971Z,46.95
2017-02-24T05:24:09.358Z,46.95
2017-02-24T05:25:09.783Z,47.15
2017-02-24T05:26:09.406Z,46.86
2017-02-24T05:27:09.432Z,47.24
2017-02-24T05:28:10.119Z,47.15
2017-02-24T05:29:09.877Z,46.57
2017-02-24T05:30:09.914Z,46.67
2017-02-24T05:31:09.538Z,46.47
2017-02-24T05:32:09.964Z,46.57
2017-02-24T05:33:10.236Z,46.47
2017-02-24T05:34:10.017Z,46.28
2017-02-24T05:35:10.054Z,46.67
2017-02-24T05:36:09.671Z,46.38
2017-02-24T05:37:10.129Z,46.86
2017-02-24T05:38:10.368Z,46.67
2017-02-24T05:39:10.161Z,46.28
2017-02-24T05:40:10.183Z,46.28
2017-02-24T05:41:10.203Z,46.19
2017-02-24T05:42:10.224Z,46.19
2017-02-24T05:43:10.504Z,46.21
2017-02-24T05:44:10.285Z,46.4
2017-02-24T05:45:10.302Z,46.31
2017-02-24T05:46:09.953Z,46.59
2017-02-24T05:47:10.382Z,46.69
2017-02-24T05:48:10.385Z,46.59
2017-02-24T05:49:10.409Z,46.4
2017-02-24T05:50:10.450Z,46.31
2017-02-24T05:51:10.074Z,46.21
2017-02-24T05:52:10.504Z,46.69
2017-02-24T05:53:10.125Z,46.4
2017-02-24T05:54:10.150Z,46.21
2017-02-24T05:55:10.575Z,46.4
2017-02-24T05:56:10.203Z,46.4
2017-02-24T05:57:10.237Z,46.21
2017-02-24T05:58:10.256Z,46.88
2017-02-24T05:59:10.670Z,46.98
2017-02-24T06:00:10.318Z,47.17
2017-02-24T06:01:10.331Z,47.08
2017-02-24T06:02:10.776Z,47.36
2017-02-24T06:03:10.809Z,47.36
2017-02-24T06:04:10.430Z,47.17
2017-02-24T06:05:10.839Z,47.27
2017-02-24T06:06:10.864Z,47.36
2017-02-24T06:07:10.496Z,47.27
2017-02-24T06:08:10.521Z,47.17
2017-02-24T06:09:10.550Z,47.67
2017-02-24T06:10:10.983Z,47.46
2017-02-24T06:11:10.604Z,47.46
2017-02-24T06:12:11.024Z,47.27
2017-02-24T06:13:11.049Z,47.17
2017-02-24T06:14:10.682Z,47.46
2017-02-24T06:15:10.699Z,47.17
2017-02-24T06:16:11.138Z,47.49
2017-02-24T06:17:11.156Z,47.49
2017-02-24T06:18:10.792Z,47.27
2017-02-24T06:19:11.070Z,47.36
2017-02-24T06:20:11.242Z,47.49
2017-02-24T06:21:10.868Z,47.29
2017-02-24T06:22:11.297Z,47.19
2017-02-24T06:23:11.326Z,47.29
2017-02-24T06:24:11.210Z,47.39
2017-02-24T06:25:11.380Z,47.58
2017-02-24T06:26:11.003Z,47.49
2017-02-24T06:27:11.429Z,47.67
2017-02-24T06:28:11.061Z,47.19
2017-02-24T06:29:11.742Z,47.19
2017-02-24T06:30:11.506Z,47.58
2017-02-24T06:31:11.140Z,47.19
2017-02-24T06:32:11.556Z,47.58
2017-02-24T06:33:11.588Z,46.91
2017-02-24T06:34:11.474Z,46.91
2017-02-24T06:35:11.637Z,47.19
2017-02-24T06:36:11.656Z,47.19
2017-02-24T06:37:11.700Z,47.29
2017-02-24T06:38:11.712Z,47.39
2017-02-24T06:39:11.600Z,47.39
2017-02-24T06:40:11.395Z,47.1
2017-02-24T06:41:11.800Z,46.81
2017-02-24T06:42:11.828Z,47
2017-02-24T06:43:11.849Z,46.81
2017-02-24T06:44:11.746Z,46.91
2017-02-24T06:45:11.903Z,46.81
2017-02-24T06:46:11.934Z,47.29
2017-02-24T06:47:11.959Z,46.91
2017-02-24T06:48:11.591Z,46.33
2017-02-24T06:49:12.261Z,47
2017-02-24T06:50:12.047Z,46.91
2017-02-24T06:51:11.668Z,46.81
2017-02-24T06:52:12.092Z,47.1
2017-02-24T06:53:12.122Z,47.1
2017-02-24T06:54:12.006Z,47.03
2017-02-24T06:55:12.182Z,46.91
2017-02-24T06:56:12.199Z,47
2017-02-24T06:57:12.228Z,47.39
2017-02-24T06:58:11.860Z,47.29
2017-02-24T06:59:12.134Z,47.19
2017-02-24T07:00:12.315Z,46.81
2017-02-24T07:01:11.943Z,46.55
2017-02-24T07:02:12.360Z,46.35
2017-02-24T07:03:11.989Z,46.45
2017-02-24T07:04:12.672Z,46.55
2017-02-24T07:05:12.443Z,46.35
2017-02-24T07:06:12.079Z,46.35
2017-02-24T07:07:12.497Z,46.25
2017-02-24T07:08:12.530Z,46.55
2017-02-24T07:09:12.155Z,46.35
2017-02-24T07:10:12.580Z,45.87
2017-02-24T07:11:12.209Z,44.93
2017-02-24T07:12:12.641Z,44.56
2017-02-24T07:13:12.261Z,44.2
2017-02-24T07:14:12.309Z,42.75
2017-02-24T07:15:12.319Z,42.19
2017-02-24T07:16:12.736Z,41.73
2017-02-24T07:17:12.765Z,41.56
2017-02-24T07:18:12.790Z,41.46
2017-02-24T07:19:12.825Z,41.54
2017-02-24T07:20:12.447Z,42.31
2017-02-24T07:21:12.480Z,41.81
2017-02-24T07:22:12.904Z,42.19
2017-02-24T07:23:12.526Z,42.39
2017-02-24T07:24:12.962Z,42.1
2017-02-24T07:25:12.591Z,42.58
2017-02-24T07:26:13.020Z,42.66
2017-02-24T07:27:13.037Z,42.36
2017-02-24T07:28:13.054Z,42.68
2017-02-24T07:29:13.091Z,42.66
2017-02-24T07:30:13.119Z,42.75
2017-02-24T07:31:13.156Z,42.56
2017-02-24T07:32:13.164Z,43.14
2017-02-24T07:33:13.202Z,42.66
2017-02-24T07:34:13.239Z,42.56
2017-02-24T07:35:12.859Z,42.85
2017-02-24T07:36:13.302Z,42.56
2017-02-24T07:37:13.310Z,42.75
2017-02-24T07:38:13.330Z,42.75
2017-02-24T07:39:12.967Z,42.75
2017-02-24T07:40:13.392Z,43.24
2017-02-24T07:41:13.421Z,43.24
2017-02-24T07:42:13.445Z,43.24
2017-02-24T07:43:13.481Z,43.24
2017-02-24T07:44:13.508Z,43.14
2017-02-24T07:45:13.540Z,42.63
2017-02-24T07:46:13.556Z,42.54
2017-02-24T07:47:13.629Z,43.33
2017-02-24T07:48:13.209Z,42.56
2017-02-24T07:49:13.242Z,42.56
2017-02-24T07:50:13.923Z,42.66
2017-02-24T07:51:13.692Z,42.56
2017-02-24T07:52:13.715Z,42.75
2017-02-24T07:53:13.747Z,43.24
2017-02-24T07:54:13.782Z,42.66
2017-02-24T07:55:13.659Z,42.66
2017-02-24T07:56:13.432Z,43.04
2017-02-24T07:57:13.463Z,42.66
2017-02-24T07:58:13.880Z,43.14
2017-02-24T07:59:13.919Z,42.66
2017-02-24T08:00:14.199Z,42.75
2017-02-24T08:01:13.964Z,42.66
2017-02-24T08:02:13.600Z,42.75
2017-02-24T08:03:13.633Z,42.66
2017-02-24T08:04:14.050Z,42.75
2017-02-24T08:05:13.951Z,42.73
2017-02-24T08:06:13.704Z,43.31
2017-02-24T08:07:13.736Z,42.35
2017-02-24T08:08:14.155Z,42.63
2017-02-24T08:09:14.190Z,42.73
2017-02-24T08:10:14.467Z,43.31
2017-02-24T08:11:13.844Z,43.21
2017-02-24T08:12:13.880Z,43.41
2017-02-24T08:13:14.294Z,43.21
2017-02-24T08:14:14.362Z,42.93
2017-02-24T08:15:14.202Z,42.9
2017-02-24T08:16:14.376Z,43.21
2017-02-24T08:17:14.007Z,42.73
2017-02-24T08:18:14.437Z,43.02
2017-02-24T08:19:14.459Z,43.58
2017-02-24T08:20:14.742Z,42.9
2017-02-24T08:21:14.519Z,42.71
2017-02-24T08:22:14.544Z,43.02
2017-02-24T08:23:14.569Z,43.19
2017-02-24T08:24:14.202Z,43.1
2017-02-24T08:25:14.874Z,43.1
2017-02-24T08:26:14.255Z,42.71
2017-02-24T08:27:14.284Z,43.1
2017-02-24T08:28:14.703Z,43.48
2017-02-24T08:29:14.734Z,43
2017-02-24T08:30:14.627Z,42.9
2017-02-24T08:31:14.786Z,42.9
2017-02-24T08:32:14.415Z,43
2017-02-24T08:33:14.853Z,42.63
2017-02-24T08:34:14.876Z,42.52
2017-02-24T08:35:15.168Z,42.25
2017-02-24T08:36:14.530Z,43.02
2017-02-24T08:37:14.559Z,43
2017-02-24T08:38:14.584Z,42.63
2017-02-24T08:39:14.617Z,43.21
2017-02-24T08:40:14.896Z,42.63
2017-02-24T08:41:14.674Z,42.73
2017-02-24T08:42:15.095Z,42.35
2017-02-24T08:43:15.117Z,42.46
2017-02-24T08:44:15.149Z,42.08
2017-02-24T08:45:15.468Z,41.3
2017-02-24T08:46:14.822Z,41.23
2017-02-24T08:47:15.230Z,40.94
2017-02-24T08:48:15.273Z,40.75
2017-02-24T08:49:15.288Z,40.75
2017-02-24T08:50:15.592Z,40.75
2017-02-24T08:51:15.366Z,40.67
2017-02-24T08:52:14.991Z,40.86
2017-02-24T08:53:15.416Z,40.77
2017-02-24T08:54:15.036Z,40.84
2017-02-24T08:55:15.473Z,40.94
2017-02-24T08:56:15.481Z,40.84
2017-02-24T08:57:15.525Z,40.75
2017-02-24T08:58:15.148Z,41.13
2017-02-24T08:59:15.567Z,40.53
2017-02-24T09:00:15.612Z,40.94
2017-02-24T09:01:15.233Z,40.36
2017-02-24T09:02:15.658Z,40.94
2017-02-24T09:03:15.690Z,40.75
2017-02-24T09:04:15.711Z,40.75
2017-02-24T09:05:15.356Z,41.11
2017-02-24T09:06:15.769Z,40.63
2017-02-24T09:07:15.401Z,40.92
2017-02-24T09:08:15.826Z,40.92
2017-02-24T09:09:15.847Z,41.6
2017-02-24T09:10:15.889Z,41.11
2017-02-24T09:11:15.921Z,41.69
2017-02-24T09:12:15.933Z,42.18
2017-02-24T09:13:15.960Z,42.08
2017-02-24T09:14:15.991Z,42.25
2017-02-24T09:15:16.052Z,42.35
2017-02-24T09:16:15.651Z,42.54
2017-02-24T09:17:16.099Z,42.44
2017-02-24T09:18:15.699Z,42.15
2017-02-24T09:19:15.751Z,42.44
2017-02-24T09:20:16.155Z,42.35
2017-02-24T09:21:15.789Z,41.96
2017-02-24T09:22:16.229Z,42.44
2017-02-24T09:23:16.238Z,42.83
2017-02-24T09:24:16.271Z,42.71
2017-02-24T09:25:16.295Z,42.54
2017-02-24T09:26:16.320Z,42.73
2017-02-24T09:27:16.354Z,42.63
2017-02-24T09:28:16.373Z,43.19
2017-02-24T09:29:16.011Z,42.8
2017-02-24T09:30:16.431Z,42.9
2017-02-24T09:31:16.459Z,43
2017-02-24T09:32:16.521Z,43
2017-02-24T09:33:16.521Z,42.9
2017-02-24T09:34:16.146Z,42.8
2017-02-24T09:35:16.173Z,43
2017-02-24T09:36:16.600Z,42.71
2017-02-24T09:37:16.226Z,43.19
2017-02-24T09:38:16.650Z,42.9
2017-02-24T09:39:16.282Z,43.1
2017-02-24T09:40:16.707Z,43
2017-02-24T09:41:16.732Z,42.9
2017-02-24T09:42:16.777Z,43.29
2017-02-24T09:43:16.389Z,43.38
2017-02-24T09:44:16.421Z,43
2017-02-24T09:45:16.846Z,43.19
2017-02-24T09:46:16.866Z,43.29
2017-02-24T09:47:16.916Z,43.29
2017-02-24T09:48:16.525Z,43.29
2017-02-24T09:49:16.569Z,43.19
2017-02-24T09:50:16.982Z,43.29
2017-02-24T09:51:17.007Z,43.19
2017-02-24T09:52:16.642Z,43.27
2017-02-24T09:53:16.669Z,43.27
2017-02-24T09:54:17.089Z,43.17
2017-02-24T09:55:17.110Z,43.17
2017-02-24T09:56:17.146Z,43.37
2017-02-24T09:57:17.191Z,43.27
2017-02-24T09:58:16.802Z,43.37
2017-02-24T09:59:16.832Z,43.65
2017-02-24T10:00:17.252Z,43.65
2017-02-24T10:01:17.138Z,43.65
2017-02-24T10:02:17.310Z,43.65
2017-02-24T10:03:16.967Z,43.46
2017-02-24T10:04:17.363Z,43.85
2017-02-24T10:05:17.389Z,43.75
2017-02-24T10:06:17.278Z,43.85
2017-02-24T10:07:17.458Z,43.65
2017-02-24T10:08:17.475Z,43.85
2017-02-24T10:09:17.505Z,43.27
2017-02-24T10:10:17.133Z,43.27
2017-02-24T10:11:17.797Z,43.17
2017-02-24T10:12:17.598Z,43.27
2017-02-24T10:13:17.214Z,42.9
2017-02-24T10:14:17.239Z,42.69
2017-02-24T10:15:17.664Z,42.59
2017-02-24T10:16:17.941Z,43.27
2017-02-24T10:17:17.325Z,42.9
2017-02-24T10:18:17.374Z,43.29
2017-02-24T10:19:17.379Z,43
2017-02-24T10:20:17.402Z,43.19
2017-02-24T10:21:17.680Z,43.1
2017-02-24T10:22:17.852Z,43.19
2017-02-24T10:23:17.881Z,43.19
2017-02-24T10:24:17.917Z,42.61
2017-02-24T10:25:17.950Z,43.29
2017-02-24T10:26:18.213Z,43.29
2017-02-24T10:27:18.008Z,43.19
2017-02-24T10:28:18.024Z,42.61
2017-02-24T10:29:18.046Z,42.9
2017-02-24T10:30:17.678Z,42.71
2017-02-24T10:31:17.958Z,42.52
2017-02-24T10:32:18.124Z,42.52
2017-02-24T10:33:17.761Z,42.42
2017-02-24T10:34:17.789Z,41.84
2017-02-24T10:35:18.206Z,42.42
2017-02-24T10:36:18.489Z,42.32
2017-02-24T10:37:18.267Z,42.23
2017-02-24T10:38:18.293Z,43.1
2017-02-24T10:39:18.323Z,44.35
2017-02-24T10:40:18.350Z,44.93
2017-02-24T10:41:18.638Z,45.79
2017-02-24T10:42:18.015Z,45.6
2017-02-24T10:43:18.460Z,44.73
2017-02-24T10:44:18.461Z,44.83
2017-02-24T10:45:18.489Z,44.93
2017-02-24T10:46:18.113Z,45.21
2017-02-24T10:47:18.151Z,45.6
2017-02-24T10:48:18.576Z,45.31
2017-02-24T10:49:18.192Z,45.03
2017-02-24T10:50:18.626Z,45.51
2017-02-24T10:51:18.649Z,45.21
2017-02-24T10:52:18.678Z,45.51
2017-02-24T10:53:18.311Z,45.12
2017-02-24T10:54:18.960Z,45.12
2017-02-24T10:55:18.761Z,45.51
2017-02-24T10:56:18.398Z,45.51
2017-02-24T10:57:18.819Z,45.6
2017-02-24T10:58:18.448Z,45.41
2017-02-24T10:59:18.888Z,45.31
2017-02-24T11:00:18.506Z,45.12
2017-02-24T11:01:18.538Z,45.6
2017-02-24T11:02:18.951Z,45.03
2017-02-24T11:03:18.984Z,45.31
2017-02-24T11:04:19.004Z,44.83
2017-02-24T11:05:18.641Z,45.03
2017-02-24T11:06:18.668Z,45.12
2017-02-24T11:07:19.100Z,45.21
2017-02-24T11:08:18.727Z,44.73
2017-02-24T11:09:18.743Z,44.54
2017-02-24T11:10:19.169Z,44.35
2017-02-24T11:11:18.818Z,44.83
2017-02-24T11:12:19.242Z,44.83
2017-02-24T11:13:18.857Z,44.64
2017-02-24T11:14:18.884Z,44.83
2017-02-24T11:15:19.312Z,44.83
2017-02-24T11:16:19.346Z,44.83
2017-02-24T11:17:19.370Z,44.83
2017-02-24T11:18:19.007Z,44.83
2017-02-24T11:19:19.019Z,44.15
2017-02-24T11:20:19.464Z,44.25
2017-02-24T11:21:19.080Z,44.54
2017-02-24T11:22:19.110Z,44.45
2017-02-24T11:23:19.139Z,44.45
2017-02-24T11:24:19.563Z,43.77
2017-02-24T11:25:19.188Z,43.96
2017-02-24T11:26:19.629Z,44.35
2017-02-24T11:27:19.241Z,44.25
2017-02-24T11:28:19.273Z,43.96
2017-02-24T11:29:19.303Z,43.77
2017-02-24T11:30:19.728Z,43.87
2017-02-24T11:31:19.753Z,43.87
2017-02-24T11:32:19.386Z,43.77
2017-02-24T11:33:19.810Z,43.58
2017-02-24T11:34:19.838Z,44.15
2017-02-24T11:35:19.471Z,43.96
2017-02-24T11:36:19.892Z,43.58
2017-02-24T11:37:19.924Z,43.77
2017-02-24T11:38:19.950Z,43.48
2017-02-24T11:39:19.974Z,43.02
2017-02-24T11:40:20.003Z,43.31
2017-02-24T11:41:19.635Z,43
2017-02-24T11:42:19.910Z,43.02
2017-02-24T11:43:20.086Z,43.1
2017-02-24T11:44:20.111Z,43.02
2017-02-24T11:45:20.147Z,43.02
2017-02-24T11:46:20.172Z,42.83
2017-02-24T11:47:20.448Z,43.21
2017-02-24T11:48:20.225Z,42.63
2017-02-24T11:49:19.854Z,42.63
2017-02-24T11:50:19.882Z,42.15
2017-02-24T11:51:19.915Z,42.44
2017-02-24T11:52:20.184Z,42.54
2017-02-24T11:53:19.980Z,42.63
2017-02-24T11:54:19.993Z,42.15
2017-02-24T11:55:20.426Z,42.36
2017-02-24T11:56:20.451Z,42.27
2017-02-24T11:57:20.732Z,42.18
2017-02-24T11:58:20.504Z,41.6
2017-02-24T11:59:20.541Z,41.98
2017-02-24T12:00:20.570Z,42.18
2017-02-24T12:01:20.591Z,41.4
2017-02-24T12:02:20.863Z,41.6
2017-02-24T12:03:20.642Z,42.18
2017-02-24T12:04:20.685Z,42.18
2017-02-24T12:05:20.306Z,42.08
2017-02-24T12:06:20.343Z,42.27
2017-02-24T12:07:21.024Z,42.36
2017-02-24T12:08:20.388Z,41.6
2017-02-24T12:09:20.812Z,41.69
2017-02-24T12:10:20.464Z,41.5
2017-02-24T12:11:20.479Z,41.11
2017-02-24T12:12:20.751Z,41.11
2017-02-24T12:13:20.523Z,41.4
2017-02-24T12:14:20.948Z,41.4
2017-02-24T12:15:20.981Z,40.82
2017-02-24T12:16:21.013Z,41.13
2017-02-24T12:17:21.302Z,40.65
2017-02-24T12:18:20.671Z,40.65
2017-02-24T12:19:21.092Z,40.55
2017-02-24T12:20:21.131Z,40.07
2017-02-24T12:21:21.153Z,39.9
2017-02-24T12:22:21.422Z,39.9
2017-02-24T12:23:20.811Z,39.8
2017-02-24T12:24:21.228Z,39.41
2017-02-24T12:25:21.279Z,39.41
2017-02-24T12:26:21.294Z,39.03
2017-02-24T12:27:21.572Z,38.74
2017-02-24T12:28:21.347Z,38.64
2017-02-24T12:29:20.979Z,38.64
2017-02-24T12:30:21.413Z,39.41
2017-02-24T12:31:21.432Z,38.64
2017-02-24T12:32:21.330Z,38.54
2017-02-24T12:33:21.490Z,39.03
2017-02-24T12:34:21.519Z,39.03
2017-02-24T12:35:21.549Z,38.54
2017-02-24T12:36:21.583Z,38.45
2017-02-24T12:37:21.461Z,38.45
2017-02-24T12:38:21.647Z,38.93
2017-02-24T12:39:21.678Z,38.91
2017-02-24T12:40:21.700Z,38.91
2017-02-24T12:41:21.720Z,38.91
2017-02-24T12:42:21.608Z,39.39
2017-02-24T12:43:21.378Z,38.62
2017-02-24T12:44:21.807Z,39.01
2017-02-24T12:45:21.835Z,38.43
2017-02-24T12:46:21.860Z,38.62
2017-02-24T12:47:21.497Z,39.37
2017-02-24T12:48:21.522Z,39.66
2017-02-24T12:49:21.574Z,39.95
2017-02-24T12:50:21.575Z,39.47
2017-02-24T12:51:22.004Z,39.76
2017-02-24T12:52:21.635Z,39.95
2017-02-24T12:53:22.053Z,39.86
2017-02-24T12:54:22.090Z,40.72
2017-02-24T12:55:21.723Z,40.82